Destinations EuroAirport Basel-Mulhouse-Freiburg Airport

EuroAirport Basel-Mulhouse-Freiburg Airport (LFSB / BSL)

Flights to EuroAirport Basel-Mulhouse-Freiburg Airport

Flight number From ETE Dispatch
SPY-2288 EGFF Cardiff International Airport 01:50

Flights from EuroAirport Basel-Mulhouse-Freiburg Airport

Flight number To ETE Dispatch
SPY-2289 EGFF Cardiff International Airport 01:50
About

EuroAirport Basel-Mulhouse-Freiburg Airport facts

EuroAirport Basel-Mulhouse-Freiburg Airport is located in Mulhouse at an elevation of 269.7 meters or 885 feet.

Currently, Speedy Airlines serves 2 flights to and from EuroAirport Basel-Mulhouse-Freiburg Airport.

Detailed airport info

Route map

Weather

Current weather

METAR

METAR

Metar data retrieved Sunday, 21 July 2024 at 18:55 UTC

LFSB 211830Z AUTO 16002KT 9999 FEW046 BKN160 24/18 Q1012 TEMPO FEW040CB
Wind Temperature
2 kt 24c